createdAt,value
2018-11-10T00:00:37.465Z,99417.14
2018-11-10T00:03:10.042Z,99401.08
2018-11-10T00:05:40.981Z,99402.70
2018-11-10T00:08:14.505Z,99412.95
2018-11-10T00:10:45.829Z,99401.96
2018-11-10T00:13:18.920Z,99405.84
2018-11-10T00:15:50.882Z,99400.31
2018-11-10T00:18:21.828Z,99396.77
2018-11-10T00:20:53.988Z,99391.41
2018-11-10T00:23:24.283Z,99389.86
2018-11-10T00:25:55.561Z,99390.34
2018-11-10T00:28:26.296Z,99395.61
2018-11-10T00:30:57.337Z,99402.71
2018-11-10T00:33:29.914Z,99417.39
2018-11-10T00:36:00.853Z,99407.09
2018-11-10T00:38:31.486Z,99405.17
2018-11-10T00:41:03.858Z,99401.89
2018-11-10T00:43:34.353Z,99402.83
2018-11-10T00:46:06.863Z,99393.00
2018-11-10T00:48:37.497Z,99404.63
2018-11-10T00:51:09.454Z,99397.38
2018-11-10T00:53:40.602Z,99391.84
2018-11-10T00:56:11.337Z,99396.02
2018-11-10T00:58:43.513Z,99396.73
2018-11-10T01:01:14.779Z,99398.86
2018-11-10T01:03:48.533Z,99392.82
2018-11-10T01:06:20.832Z,99384.03
2018-11-10T01:08:56.577Z,99378.61
2018-11-10T01:11:27.522Z,99379.27
2018-11-10T01:13:59.673Z,99379.16
2018-11-10T01:16:38.409Z,99371.14
2018-11-10T01:19:10.886Z,99360.63
2018-11-10T01:21:43.053Z,99358.38
2018-11-10T01:24:16.757Z,99350.69
2018-11-10T01:26:50.976Z,99350.90
2018-11-10T01:29:22.073Z,99348.16
2018-11-10T01:31:54.486Z,99344.34
2018-11-10T01:34:25.046Z,99339.00
2018-11-10T01:36:55.652Z,99336.09
2018-11-10T01:39:27.208Z,99327.38
2018-11-10T01:41:58.468Z,99320.69
2018-11-10T01:44:29.083Z,99316.16
2018-11-10T01:47:01.247Z,99308.06
2018-11-10T01:49:33.112Z,99304.48
2018-11-10T01:52:05.467Z,99315.72
2018-11-10T01:54:36.529Z,99312.83
2018-11-10T01:57:07.568Z,99317.31
2018-11-10T01:59:39.225Z,99321.75
2018-11-10T02:02:10.164Z,99328.70
2018-11-10T02:04:41.061Z,99333.19
2018-11-10T02:07:12.553Z,99333.36
2018-11-10T02:09:44.594Z,99323.39
2018-11-10T02:12:19.655Z,99313.96
2018-11-10T02:14:51.413Z,99309.80
2018-11-10T02:17:22.150Z,99314.28
2018-11-10T02:19:53.598Z,99320.73
2018-11-10T02:22:25.464Z,99317.95
2018-11-10T02:24:59.886Z,99306.58
2018-11-10T02:27:32.766Z,99303.56
2018-11-10T02:30:03.206Z,99295.13
2018-11-10T02:32:34.031Z,99301.91
2018-11-10T02:35:06.142Z,99310.27
2018-11-10T02:37:38.525Z,99306.48
2018-11-10T02:40:12.583Z,99294.78
2018-11-10T02:42:44.818Z,99287.33
2018-11-10T02:45:17.019Z,99285.35
2018-11-10T02:47:47.551Z,99295.04
2018-11-10T02:50:19.105Z,99307.63
2018-11-10T02:52:50.265Z,99304.20
2018-11-10T02:55:21.398Z,99284.22
2018-11-10T02:57:54.583Z,99274.11
2018-11-10T03:00:26.057Z,99284.66
2018-11-10T03:02:56.251Z,99289.80
2018-11-10T03:05:26.888Z,99278.34
2018-11-10T03:07:59.359Z,99273.94
2018-11-10T03:10:29.706Z,99291.50
2018-11-10T03:13:00.832Z,99288.89
2018-11-10T03:15:31.301Z,99295.49
2018-11-10T03:18:02.302Z,99286.20
2018-11-10T03:20:32.725Z,99272.63
2018-11-10T03:23:11.347Z,99273.14
2018-11-10T03:25:46.997Z,99277.11
2018-11-10T03:28:17.837Z,99265.20
2018-11-10T03:30:47.749Z,99272.31
2018-11-10T03:33:18.930Z,99273.14
2018-11-10T03:35:51.047Z,99265.36
2018-11-10T03:38:23.539Z,99257.56
2018-11-10T03:40:54.065Z,99258.62
2018-11-10T03:43:25.107Z,99242.06
2018-11-10T03:45:56.660Z,99241.39
2018-11-10T03:48:28.488Z,99230.67
2018-11-10T03:50:59.049Z,99240.09
2018-11-10T03:53:30.946Z,99242.41
2018-11-10T03:56:01.511Z,99224.37
2018-11-10T03:58:32.688Z,99216.58
2018-11-10T04:01:10.692Z,99230.81
2018-11-10T04:03:43.169Z,99247.04
2018-11-10T04:06:15.029Z,99275.89
2018-11-10T04:08:46.579Z,99288.74
2018-11-10T04:11:18.339Z,99286.05
2018-11-10T04:13:50.100Z,99273.05
2018-11-10T04:16:22.166Z,99264.87
2018-11-10T04:18:53.718Z,99271.99
2018-11-10T04:21:25.374Z,99281.59
2018-11-10T04:23:56.514Z,99292.02
2018-11-10T04:26:28.789Z,99305.86
2018-11-10T04:28:59.523Z,99283.73
2018-11-10T04:31:31.486Z,99263.66
2018-11-10T04:34:02.323Z,99250.97
2018-11-10T04:36:33.672Z,99259.81
2018-11-10T04:39:04.407Z,99247.06
2018-11-10T04:41:35.853Z,99232.44
2018-11-10T04:44:07.411Z,99217.41
2018-11-10T04:46:38.760Z,99215.91
2018-11-10T04:49:11.030Z,99216.53
2018-11-10T04:51:44.018Z,99244.41
2018-11-10T04:54:14.957Z,99232.17
2018-11-10T04:56:46.715Z,99239.50
2018-11-10T04:59:20.108Z,99261.50
2018-11-10T05:01:54.550Z,99245.89
2018-11-10T05:04:24.863Z,99256.33
2018-11-10T05:06:57.253Z,99245.89
2018-11-10T05:09:29.091Z,99257.19
2018-11-10T05:12:00.440Z,99279.67
2018-11-10T05:14:31.993Z,99274.33
2018-11-10T05:17:02.627Z,99269.36
2018-11-10T05:19:34.691Z,99279.00
2018-11-10T05:22:05.733Z,99289.81
2018-11-10T05:24:36.467Z,99281.77
2018-11-10T05:27:07.508Z,99290.04
2018-11-10T05:29:39.268Z,99258.33
2018-11-10T05:32:11.745Z,99269.47
2018-11-10T05:34:42.784Z,99246.09
2018-11-10T05:37:14.031Z,99226.98
2018-11-10T05:39:44.658Z,99234.10
2018-11-10T05:42:15.393Z,99210.10
2018-11-10T05:44:46.330Z,99215.98
2018-11-10T05:47:17.891Z,99216.59
2018-11-10T05:49:53.744Z,99220.61
2018-11-10T05:52:27.243Z,99218.95
2018-11-10T05:54:59.204Z,99237.13
2018-11-10T05:57:30.044Z,99254.70
2018-11-10T06:00:02.009Z,99243.16
2018-11-10T06:02:32.740Z,99231.22
2018-11-10T06:05:03.368Z,99232.82
2018-11-10T06:07:34.757Z,99223.73
2018-11-10T06:10:05.825Z,99219.27
2018-11-10T06:12:36.596Z,99216.85
2018-11-10T06:15:10.423Z,99200.82
2018-11-10T06:17:41.239Z,99216.42
2018-11-10T06:20:13.516Z,99218.16
2018-11-10T06:22:44.555Z,99223.86
2018-11-10T06:25:15.894Z,99239.34
2018-11-10T06:27:47.454Z,99245.95
2018-11-10T06:30:22.273Z,99236.52
2018-11-10T06:32:58.454Z,99237.76
2018-11-10T06:35:36.967Z,99250.50
2018-11-10T06:38:13.133Z,99245.13
2018-11-10T06:40:48.368Z,99244.77
2018-11-10T06:43:24.731Z,99239.56
2018-11-10T06:45:57.620Z,99225.50
2018-11-10T06:48:30.510Z,99214.86
2018-11-10T06:51:05.437Z,99216.63
2018-11-10T06:53:42.008Z,99217.87
2018-11-10T06:56:13.251Z,99218.02
2018-11-10T06:58:45.423Z,99217.55
2018-11-10T07:01:17.283Z,99223.90
2018-11-10T07:03:49.348Z,99213.91
2018-11-10T07:06:22.946Z,99214.42
2018-11-10T07:08:56.653Z,99236.79
2018-11-10T07:11:29.538Z,99223.52
2018-11-10T07:14:01.799Z,99229.91
2018-11-10T07:16:35.411Z,99213.00
2018-11-10T07:19:07.883Z,99224.55
2018-11-10T07:21:40.243Z,99215.42
2018-11-10T07:24:11.603Z,99210.44
2018-11-10T07:26:43.559Z,99193.41
2018-11-10T07:29:21.117Z,99194.84
2018-11-10T07:31:58.151Z,99200.95
2018-11-10T07:34:33.381Z,99200.41
2018-11-10T07:37:15.105Z,99205.69
2018-11-10T07:39:50.725Z,99186.29
2018-11-10T07:42:24.941Z,99178.48
2018-11-10T07:44:59.722Z,99194.19
2018-11-10T07:47:37.060Z,99189.17
2018-11-10T07:50:27.753Z,99209.59
2018-11-10T07:53:00.743Z,99222.88
2018-11-10T07:55:33.319Z,99228.14
2018-11-10T07:58:08.464Z,99230.27
2018-11-10T08:00:41.240Z,99210.75
2018-11-10T08:03:13.415Z,99203.77
2018-11-10T08:05:45.165Z,99203.77
2018-11-10T08:08:21.324Z,99205.55
2018-11-10T08:10:53.204Z,99199.59
2018-11-10T08:13:28.231Z,99202.34
2018-11-10T08:16:03.368Z,99187.80
2018-11-10T08:18:37.569Z,99185.27
2018-11-10T08:21:12.609Z,99184.17
2018-11-10T08:23:46.312Z,99191.30
2018-11-10T08:26:18.377Z,99195.95
2018-11-10T08:28:51.582Z,99196.93
2018-11-10T08:31:28.971Z,99196.28
2018-11-10T08:34:01.843Z,99203.80
2018-11-10T08:36:33.500Z,99203.86
2018-11-10T08:39:06.137Z,99227.12
2018-11-10T08:41:45.311Z,99214.77
2018-11-10T08:44:19.540Z,99221.77
2018-11-10T08:46:57.749Z,99212.70
2018-11-10T08:49:32.770Z,99211.62
2018-11-10T08:52:07.193Z,99207.70
2018-11-10T08:54:42.957Z,99206.49
2018-11-10T08:57:18.086Z,99207.75
2018-11-10T09:02:41.460Z,99209.66
2018-11-10T09:05:15.693Z,99203.08
2018-11-10T09:07:47.746Z,99210.36
2018-11-10T09:10:23.085Z,99214.14
2018-11-10T09:12:56.178Z,99206.48
2018-11-10T09:15:30.002Z,99215.20
2018-11-10T09:18:03.089Z,99225.30
2018-11-10T09:20:38.225Z,99228.88
2018-11-10T09:23:12.831Z,99219.59
2018-11-10T09:25:45.020Z,99215.16
2018-11-10T09:28:20.672Z,99222.00
2018-11-10T09:31:09.607Z,99206.76
2018-11-10T09:33:43.422Z,99219.52
2018-11-10T09:36:17.231Z,99219.55
2018-11-10T09:38:56.410Z,99219.55
2018-11-10T09:41:31.487Z,99227.48
2018-11-10T09:44:05.945Z,99233.41
2018-11-10T09:46:46.190Z,99237.20
2018-11-10T09:49:25.599Z,99242.08
2018-11-10T09:52:06.706Z,99247.39
2018-11-10T09:54:45.836Z,99242.77
2018-11-10T09:57:29.168Z,99233.28
2018-11-10T10:00:04.916Z,99225.31
2018-11-10T10:02:42.379Z,99230.63
2018-11-10T10:05:24.894Z,99231.41
2018-11-10T10:08:00.469Z,99233.38
2018-11-10T10:13:37.779Z,99245.48
2018-11-10T10:16:20.081Z,99240.59
2018-11-10T10:19:04.548Z,99249.80
2018-11-10T10:21:42.444Z,99237.98
2018-11-10T10:24:26.694Z,99238.98
2018-11-10T10:27:21.169Z,99232.48
2018-11-10T10:46:39.956Z,99209.39
2018-11-10T10:49:22.267Z,99192.77
2018-11-10T10:51:56.889Z,99203.88
2018-11-10T10:54:35.096Z,99194.59
2018-11-10T10:57:08.357Z,99199.23
2018-11-10T10:59:52.645Z,99194.36
2018-11-10T11:02:32.691Z,99196.34
2018-11-10T11:05:18.179Z,99192.52
2018-11-10T11:07:55.263Z,99194.52
2018-11-10T11:13:10.449Z,99193.48
2018-11-10T11:15:54.242Z,99192.49
2018-11-10T11:18:32.605Z,99186.67
2018-11-10T11:21:12.931Z,99179.50
2018-11-10T11:24:01.069Z,99175.66
2018-11-10T11:26:35.774Z,99172.25
2018-11-10T11:29:23.512Z,99174.14
2018-11-10T11:31:58.607Z,99180.39
2018-11-10T11:34:35.566Z,99181.73
2018-11-10T11:37:12.339Z,99179.95
2018-11-10T11:39:50.979Z,99185.20
2018-11-10T11:45:09.963Z,99173.75
2018-11-10T11:47:44.758Z,99173.75
2018-11-10T11:50:20.033Z,99166.58
2018-11-10T11:52:57.218Z,99175.67
2018-11-10T11:55:36.501Z,99174.73
2018-11-10T11:58:14.066Z,99180.28
2018-11-10T12:00:56.216Z,99174.06
2018-11-10T12:03:30.338Z,99173.04
2018-11-10T12:09:07.264Z,99171.61
2018-11-10T12:11:47.533Z,99159.84
2018-11-10T12:14:23.065Z,99166.41
2018-11-10T12:17:06.082Z,99170.98
2018-11-10T12:19:44.037Z,99172.58
2018-11-10T12:22:21.286Z,99161.44
2018-11-10T12:24:54.723Z,99158.69
2018-11-10T12:27:34.245Z,99156.87
2018-11-10T12:33:05.281Z,99160.78
2018-11-10T12:35:46.229Z,99153.58
2018-11-10T12:38:19.210Z,99151.29
2018-11-10T12:40:56.220Z,99151.32
2018-11-10T12:43:31.052Z,99147.07
2018-11-10T12:46:11.721Z,99147.57
2018-11-10T12:51:44.334Z,99165.55
2018-11-10T12:54:20.864Z,99162.10
2018-11-10T12:56:57.873Z,99162.55
2018-11-10T12:59:35.406Z,99162.06
2018-11-10T13:02:13.986Z,99168.86
2018-11-10T13:04:50.858Z,99176.28
2018-11-10T13:07:43.550Z,99164.34
2018-11-10T13:10:27.697Z,99147.61
2018-11-10T13:13:09.344Z,99124.95
2018-11-10T13:15:59.031Z,99136.88
2018-11-10T13:18:37.753Z,99122.27
2018-11-10T13:21:25.167Z,99127.08
2018-11-10T13:24:13.747Z,99119.68
2018-11-10T13:26:59.723Z,99127.21
2018-11-10T13:29:39.570Z,99132.26
2018-11-10T13:35:43.088Z,99129.69
2018-11-10T13:44:30.074Z,99135.48
2018-11-10T13:47:16.042Z,99135.31
2018-11-10T13:49:55.512Z,99134.78
2018-11-10T13:52:39.706Z,99138.05
2018-11-10T13:55:26.643Z,99131.10
2018-11-10T13:58:12.052Z,99135.98
2018-11-10T14:00:48.202Z,99132.44
2018-11-10T14:03:24.267Z,99138.63
2018-11-10T14:06:20.708Z,99138.05
2018-11-10T14:09:01.274Z,99137.70
2018-11-10T14:11:43.725Z,99131.89
2018-11-10T14:14:25.243Z,99132.26
2018-11-10T14:17:10.749Z,99138.66
2018-11-10T14:19:50.668Z,99140.10
2018-11-10T14:22:32.244Z,99137.48
2018-11-10T14:25:09.680Z,99138.17
2018-11-10T14:27:48.272Z,99144.71
2018-11-10T14:30:25.453Z,99140.67
2018-11-10T14:33:09.401Z,99135.64
2018-11-10T14:35:49.756Z,99136.97
2018-11-10T14:38:28.972Z,99133.70
2018-11-10T14:43:49.301Z,99130.64
2018-11-10T14:46:23.523Z,99140.59
2018-11-10T14:48:59.704Z,99150.88
2018-11-10T14:51:34.109Z,99166.56
2018-11-10T14:54:13.203Z,99174.16
2018-11-10T15:00:31.299Z,99185.13
2018-11-10T15:03:07.070Z,99189.02
2018-11-10T15:05:43.698Z,99184.13
2018-11-10T15:08:20.499Z,99188.88
2018-11-10T15:11:06.703Z,99190.42
2018-11-10T15:13:44.302Z,99193.59
2018-11-10T15:16:33.256Z,99202.71
2018-11-10T15:24:48.265Z,99203.16
2018-11-10T15:27:22.680Z,99206.88
2018-11-10T15:29:59.768Z,99214.92
2018-11-10T15:32:35.827Z,99209.52
2018-11-10T15:35:20.499Z,99205.52
2018-11-10T15:37:57.669Z,99210.83
2018-11-10T15:40:40.900Z,99213.62
2018-11-10T15:43:21.806Z,99202.78
2018-11-10T15:46:00.051Z,99199.56
2018-11-10T15:48:45.362Z,99190.11
2018-11-10T15:51:19.168Z,99195.32
2018-11-10T15:53:54.577Z,99189.12
2018-11-10T15:56:31.760Z,99191.92
2018-11-10T15:59:09.694Z,99186.20
2018-11-10T16:01:40.537Z,99177.41
2018-11-10T16:04:19.233Z,99161.62
2018-11-10T16:06:55.010Z,99161.97
2018-11-10T16:09:41.306Z,99166.22
2018-11-10T16:12:25.127Z,99156.00
2018-11-10T16:15:02.333Z,99153.63
2018-11-10T16:17:41.981Z,99162.73
2018-11-10T16:20:17.830Z,99159.46
2018-11-10T16:22:59.317Z,99161.11
2018-11-10T16:25:35.994Z,99157.92
2018-11-10T16:28:21.012Z,99147.58
2018-11-10T16:30:55.892Z,99146.59
2018-11-10T16:33:33.999Z,99140.69
2018-11-10T16:36:16.925Z,99134.06
2018-11-10T16:39:07.212Z,99128.20
2018-11-10T16:41:44.401Z,99130.77
2018-11-10T16:44:22.714Z,99137.26
2018-11-10T16:47:06.859Z,99138.45
2018-11-10T16:52:36.999Z,99139.15
2018-11-10T16:55:15.610Z,99135.95
2018-11-10T16:57:50.142Z,99138.59
2018-11-10T17:00:27.430Z,99141.17
2018-11-10T17:03:02.635Z,99138.17
2018-11-10T17:05:40.959Z,99147.74
2018-11-10T17:08:22.984Z,99141.95
2018-11-10T17:11:03.336Z,99139.58
2018-11-10T17:13:38.559Z,99134.45
2018-11-10T17:16:32.252Z,99132.66
2018-11-10T17:19:14.145Z,99129.91
2018-11-10T17:21:52.167Z,99129.23
2018-11-10T17:24:36.095Z,99117.97
2018-11-10T17:27:08.313Z,99120.17
2018-11-10T17:29:42.789Z,99111.45
2018-11-10T17:32:18.505Z,99122.48
2018-11-10T17:34:55.011Z,99106.59
2018-11-10T17:37:34.870Z,99117.57
2018-11-10T17:40:15.654Z,99121.74
2018-11-10T17:42:50.966Z,99112.59
2018-11-10T17:45:29.686Z,99106.27
2018-11-10T17:48:11.145Z,99109.23
2018-11-10T17:50:49.453Z,99102.52
2018-11-10T17:53:22.990Z,99100.20
2018-11-10T17:56:00.479Z,99106.09
2018-11-10T17:58:38.688Z,99095.32
2018-11-10T18:01:17.318Z,99092.53
2018-11-10T18:03:58.474Z,99085.33
2018-11-10T18:06:33.829Z,99090.73
2018-11-10T18:09:14.802Z,99082.56
2018-11-10T18:11:51.401Z,99089.77
2018-11-10T18:14:36.310Z,99099.93
2018-11-10T18:17:15.781Z,99107.30
2018-11-10T18:19:52.966Z,99094.69
2018-11-10T18:22:32.815Z,99098.62
2018-11-10T18:25:11.760Z,99103.86
2018-11-10T18:27:43.303Z,99111.38
2018-11-10T18:30:20.549Z,99106.48
2018-11-10T18:32:55.709Z,99110.89
2018-11-10T18:35:35.578Z,99115.29
2018-11-10T18:38:20.029Z,99105.14
2018-11-10T18:41:01.070Z,99111.69
2018-11-10T18:43:40.917Z,99113.31
2018-11-10T18:46:22.333Z,99137.91
2018-11-10T18:49:01.165Z,99126.41
2018-11-10T18:51:34.864Z,99131.66
2018-11-10T18:54:10.204Z,99121.20
2018-11-10T18:56:46.530Z,99127.24
2018-11-10T18:59:19.155Z,99113.62
2018-11-10T19:01:53.672Z,99120.52
2018-11-10T19:04:27.702Z,99121.11
2018-11-10T19:06:58.830Z,99147.73
2018-11-10T19:09:32.411Z,99148.55
2018-11-10T19:12:03.188Z,99138.59
2018-11-10T19:14:34.391Z,99138.91
2018-11-10T19:17:11.353Z,99150.19
2018-11-10T19:19:44.179Z,99160.37
2018-11-10T19:22:16.954Z,99172.45
2018-11-10T19:24:48.917Z,99164.94
2018-11-10T19:27:22.892Z,99161.45
2018-11-10T19:29:56.407Z,99160.80
2018-11-10T19:32:28.401Z,99149.10
2018-11-10T19:35:00.866Z,99169.34
2018-11-10T19:37:34.446Z,99177.69
2018-11-10T19:40:10.207Z,99190.02
2018-11-10T19:42:45.562Z,99191.87
2018-11-10T19:45:22.850Z,99182.06
2018-11-10T19:47:54.200Z,99188.84
2018-11-10T19:50:27.606Z,99199.09
2018-11-10T19:53:03.430Z,99185.38
2018-11-10T19:55:34.673Z,99175.41
2018-11-10T19:58:08.393Z,99186.91
2018-11-10T20:00:39.948Z,99186.60
2018-11-10T20:03:13.035Z,99195.34
2018-11-10T20:05:46.032Z,99194.03
2018-11-10T20:08:17.174Z,99187.39
2018-11-10T20:10:50.160Z,99191.33
2018-11-10T20:13:27.545Z,99187.39
2018-11-10T20:15:58.588Z,99193.16
2018-11-10T20:18:30.249Z,99207.45
2018-11-10T20:21:03.556Z,99189.59
2018-11-10T20:23:40.013Z,99183.70
2018-11-10T20:26:12.654Z,99199.46
2018-11-10T20:28:47.519Z,99185.15
2018-11-10T20:31:26.142Z,99184.14
2018-11-10T20:34:00.255Z,99173.05
2018-11-10T20:39:12.793Z,99181.31
2018-11-10T20:41:43.315Z,99185.34
2018-11-10T20:44:16.095Z,99178.05
2018-11-10T20:46:46.631Z,99182.28
2018-11-10T20:49:21.417Z,99176.80
2018-11-10T20:52:02.544Z,99164.66
2018-11-10T20:54:38.204Z,99160.32
2018-11-10T20:57:13.793Z,99156.72
2018-11-10T20:59:49.624Z,99156.01
2018-11-10T21:02:21.764Z,99146.03
2018-11-10T21:04:58.495Z,99146.56
2018-11-10T21:07:33.673Z,99150.13
2018-11-10T21:10:09.212Z,99143.50
2018-11-10T21:12:45.004Z,99138.84
2018-11-10T21:15:20.712Z,99146.22
2018-11-10T21:17:51.770Z,99140.83
2018-11-10T21:20:24.335Z,99146.86
2018-11-10T21:22:59.489Z,99140.04
2018-11-10T21:25:40.345Z,99136.06
2018-11-10T21:28:12.590Z,99142.66
2018-11-10T21:30:47.137Z,99130.67
2018-11-10T21:33:19.234Z,99131.06
2018-11-10T21:35:50.513Z,99133.38
2018-11-10T21:38:23.176Z,99134.04
2018-11-10T21:41:08.261Z,99127.20
2018-11-10T21:43:39.939Z,99136.58
2018-11-10T21:46:18.642Z,99134.31
2018-11-10T21:48:50.759Z,99127.05
2018-11-10T21:51:24.451Z,99133.31
2018-11-10T21:53:57.500Z,99136.14
2018-11-10T21:56:34.581Z,99132.80
2018-11-10T21:59:07.573Z,99123.96
2018-11-10T22:01:39.881Z,99125.42
2018-11-10T22:04:14.783Z,99142.36
2018-11-10T22:06:51.911Z,99139.35
2018-11-10T22:09:30.943Z,99139.34
2018-11-10T22:12:06.536Z,99136.76
2018-11-10T22:14:42.950Z,99146.02
2018-11-10T22:17:20.040Z,99135.64
2018-11-10T22:19:56.351Z,99149.73
2018-11-10T22:22:36.067Z,99152.45
2018-11-10T22:25:13.205Z,99143.77
2018-11-10T22:27:47.658Z,99142.73
2018-11-10T22:30:21.756Z,99146.09
2018-11-10T22:32:57.579Z,99144.73
2018-11-10T22:35:31.571Z,99154.19
2018-11-10T22:40:47.067Z,99171.51
2018-11-10T22:43:22.148Z,99170.63
2018-11-10T22:46:01.763Z,99172.16
2018-11-10T22:48:38.377Z,99171.05
2018-11-10T22:51:12.430Z,99180.59
2018-11-10T22:53:49.812Z,99178.45
2018-11-10T22:56:31.679Z,99170.56
2018-11-10T22:59:15.997Z,99172.09
2018-11-10T23:01:54.652Z,99171.28
2018-11-10T23:04:29.066Z,99180.72
2018-11-10T23:07:04.722Z,99178.58
2018-11-10T23:09:39.241Z,99175.29
2018-11-10T23:12:12.028Z,99187.41
2018-11-10T23:14:47.370Z,99191.19
2018-11-10T23:17:24.140Z,99197.07
2018-11-10T23:19:57.134Z,99206.13
2018-11-10T23:22:29.726Z,99219.42
2018-11-10T23:25:02.828Z,99223.18
2018-11-10T23:27:33.326Z,99221.95
2018-11-10T23:30:08.089Z,99217.59
2018-11-10T23:32:42.577Z,99222.66
2018-11-10T23:35:18.129Z,99221.42
2018-11-10T23:37:49.579Z,99229.73
2018-11-10T23:40:20.767Z,99244.73
2018-11-10T23:42:52.589Z,99250.41
2018-11-10T23:45:23.627Z,99246.77
2018-11-10T23:47:56.721Z,99251.10
2018-11-10T23:50:30.917Z,99259.34
2018-11-10T23:53:05.147Z,99260.23
2018-11-10T23:55:40.285Z,99260.75
2018-11-10T23:58:20.339Z,99268.45
